Weather at Jotun B Platform [CLOSED]

Public forecast

Using degrees Celsius for public forecast. Weather courtesy of forecast.io.

Closest aviation weather report (METAR) to Jotun B Platform

Closest report is Johan Sverdrup Helipad, 37.4 nm (69.2 km) S.

2024/07/17 13:50 (retrieved 20 minutes ago)

ENJS 171350Z 26010KT 9999 FEW020 SCT046 14/11 Q1017 W14/S3

Closest aviation forecast (TAF) to Jotun B Platform

Closest forecast is Oseberg A Platform, 64.0 nm (118.5 km) NNE.

2024/07/17 12:36 (retrieved 2 hours ago)

TAF ENOA 171100Z 1712/1812 24008KT 9999 FEW008 BKN025 TEMPO 1712/1724 BKN008 PROB40 1800/1809 0100 FG VV001 BECMG 1805/1807 18012KT BECMG 1810/1812 17022KT